Time;durP1;ratioP1;P1;durP2;ratioP2;P2;SDS_P1;SDS_P2;PMS_P1;PMS_P2;Temp;Humidity;BMP_temperature;BMP_pressure;BME280_temperature;BME280_humidity;BME280_pressure;Samples;Min_cycle;Max_cycle;Signal;HPM_P1;HPM_P2
2024/01/02 00:00:25;;;;;;;19.60;13.90;;;;;;;3.76;100.00;99055.70;105943;1259;72726;-53
2024/01/02 00:02:52;;;;;;;18.10;12.50;;;;;;;3.76;100.00;99054.98;104854;1256;60271;-56
2024/01/02 00:05:20;;;;;;;15.10;11.30;;;;;;;3.78;100.00;99055.81;104984;1257;60620;-55
2024/01/02 00:07:47;;;;;;;18.40;13.00;;;;;;;3.79;100.00;99053.82;104879;1253;71630;-56
2024/01/02 00:10:15;;;;;;;18.30;13.00;;;;;;;3.81;100.00;99057.67;104856;1256;66208;-55
2024/01/02 00:12:42;;;;;;;18.50;12.80;;;;;;;3.82;100.00;99054.27;104727;1258;72802;-55
2024/01/02 00:15:10;;;;;;;20.00;14.30;;;;;;;3.83;100.00;99045.20;104743;1253;60734;-52
2024/01/02 00:17:37;;;;;;;16.60;13.00;;;;;;;3.83;100.00;99043.93;104641;1259;60760;-53
2024/01/02 00:20:05;;;;;;;19.00;12.00;;;;;;;3.85;100.00;99038.91;104762;1256;72992;-52
2024/01/02 00:22:33;;;;;;;17.00;12.10;;;;;;;3.86;100.00;99034.95;109014;1253;67121;-55
2024/01/02 00:25:00;;;;;;;16.80;12.60;;;;;;;3.89;100.00;99035.94;107128;1254;72730;-55
2024/01/02 00:27:27;;;;;;;17.80;12.10;;;;;;;3.91;100.00;99036.96;108765;1253;61631;-55
2024/01/02 00:29:55;;;;;;;15.40;11.30;;;;;;;3.94;100.00;99040.92;105388;1254;60494;-57
2024/01/02 00:32:22;;;;;;;16.40;12.40;;;;;;;3.97;100.00;99044.55;104682;1253;73916;-52
2024/01/02 00:34:51;;;;;;;16.40;12.70;;;;;;;4.01;100.00;99044.77;104699;1258;65751;-55
2024/01/02 00:37:19;;;;;;;17.00;12.40;;;;;;;4.05;100.00;99050.86;107383;1254;71489;-55
2024/01/02 00:39:46;;;;;;;14.60;11.80;;;;;;;4.05;100.00;99049.59;104836;1253;60519;-52
2024/01/02 00:42:13;;;;;;;16.20;12.10;;;;;;;4.06;100.00;99046.02;104914;1253;60548;-54
2024/01/02 00:44:40;;;;;;;16.90;11.20;;;;;;;4.07;100.00;99039.45;104598;1253;72618;-54
2024/01/02 00:47:10;;;;;;;13.40;9.60;;;;;;;4.07;100.00;99043.34;104722;1253;65965;-57
2024/01/02 00:49:38;;;;;;;13.50;9.80;;;;;;;4.08;100.00;99037.62;106670;1256;71760;-52
2024/01/02 00:52:05;;;;;;;12.00;7.50;;;;;;;4.09;100.00;99035.96;106845;1258;60406;-52
2024/01/02 00:54:32;;;;;;;6.00;5.30;;;;;;;4.11;100.00;99031.27;104633;1253;60528;-55
2024/01/02 00:56:59;;;;;;;4.50;3.30;;;;;;;4.14;100.00;99031.20;104642;1254;73388;-55
2024/01/02 00:59:27;;;;;;;3.80;3.10;;;;;;;4.15;100.00;99028.31;104744;1258;67404;-53
2024/01/02 01:01:54;;;;;;;5.10;2.30;;;;;;;4.16;100.00;99026.70;104705;1256;72894;-54
2024/01/02 01:04:23;;;;;;;5.90;2.00;;;;;;;4.15;100.00;99026.36;106361;1254;60574;-54
2024/01/02 01:06:51;;;;;;;2.10;1.50;;;;;;;4.14;100.00;99027.81;104568;1253;60445;-57
2024/01/02 01:09:19;;;;;;;1.90;1.40;;;;;;;4.12;100.00;99022.55;104734;1254;73921;-51
2024/01/02 01:11:46;;;;;;;1.00;0.70;;;;;;;4.12;100.00;99019.52;104731;1256;67267;-54
2024/01/02 01:14:13;;;;;;;1.40;0.60;;;;;;;4.13;100.00;99020.58;104527;1256;73225;-51
2024/01/02 01:16:41;;;;;;;0.80;0.50;;;;;;;4.12;100.00;99022.56;104678;1256;60651;-53
2024/01/02 01:19:08;;;;;;;0.50;0.30;;;;;;;4.11;100.00;99017.62;104669;1254;60627;-56
2024/01/02 01:21:35;;;;;;;0.40;0.30;;;;;;;4.08;100.00;99016.45;104699;1257;73887;-52
2024/01/02 01:24:03;;;;;;;0.40;0.20;;;;;;;4.06;100.00;99023.99;104761;1253;67516;-54
2024/01/02 01:26:30;;;;;;;0.50;0.20;;;;;;;4.04;100.00;99016.27;104582;1254;71449;-54
2024/01/02 01:28:58;;;;;;;0.30;0.20;;;;;;;4.03;100.00;99014.69;104661;1254;60975;-56
2024/01/02 01:31:25;;;;;;;0.30;0.30;;;;;;;4.03;100.00;99020.36;104743;1258;59249;-57
2024/01/02 01:33:52;;;;;;;0.50;0.30;;;;;;;4.02;100.00;99019.70;104451;1253;72904;-51
2024/01/02 01:36:20;;;;;;;0.40;0.30;;;;;;;4.03;100.00;99017.17;104602;1253;68827;-56
2024/01/02 01:38:48;;;;;;;1.70;0.20;;;;;;;4.03;100.00;99013.27;105123;1254;73142;-55
2024/01/02 01:41:15;;;;;;;0.20;0.20;;;;;;;4.01;100.00;99012.45;104798;1253;60520;-54
2024/01/02 01:43:42;;;;;;;0.30;0.20;;;;;;;3.99;100.00;99008.80;104463;1253;60284;-53
2024/01/02 01:46:10;;;;;;;0.30;0.20;;;;;;;3.98;100.00;99006.55;104334;1254;73313;-54
2024/01/02 01:48:37;;;;;;;0.30;0.20;;;;;;;3.95;100.00;98996.50;104768;1253;68079;-51
2024/01/02 01:51:05;;;;;;;0.20;0.10;;;;;;;3.93;100.00;98998.18;105633;1254;71155;-53
2024/01/02 01:53:32;;;;;;;1.10;0.10;;;;;;;3.92;100.00;98996.08;106488;1255;60553;-57
2024/01/02 01:56:00;;;;;;;0.20;0.10;;;;;;;3.93;100.00;98994.27;104587;1257;60512;-57
2024/01/02 01:58:27;;;;;;;0.20;0.10;;;;;;;3.93;100.00;98992.83;104456;1254;73898;-53
2024/01/02 02:00:54;;;;;;;0.30;0.10;;;;;;;3.93;100.00;98988.95;104459;1253;65748;-51
2024/01/02 02:03:22;;;;;;;1.80;0.10;;;;;;;3.90;100.00;98983.20;108844;1253;72631;-54
2024/01/02 02:05:50;;;;;;;0.20;0.10;;;;;;;3.86;100.00;98984.55;104984;1259;61220;-55
2024/01/02 02:08:17;;;;;;;0.10;0.10;;;;;;;3.84;100.00;98983.95;104901;1256;60957;-57
2024/01/02 02:10:45;;;;;;;0.10;0.10;;;;;;;3.82;100.00;98977.45;104637;1258;74519;-56
2024/01/02 02:13:12;;;;;;;0.20;0.10;;;;;;;3.81;100.00;98972.33;104760;1260;66942;-56
2024/01/02 02:15:41;;;;;;;0.00;0.00;;;;;;;3.80;100.00;98976.42;104568;1255;72656;-54
2024/01/02 02:18:10;;;;;;;0.20;0.10;;;;;;;3.80;100.00;98970.55;108857;1253;59459;-53
2024/01/02 02:20:38;;;;;;;0.10;0.10;;;;;;;3.80;100.00;98971.08;105823;1253;59153;-53
2024/01/02 02:23:05;;;;;;;0.10;0.10;;;;;;;3.79;100.00;98973.27;104747;1253;72651;-52
2024/01/02 02:25:33;;;;;;;0.30;0.10;;;;;;;3.76;100.00;98967.30;105756;1253;67275;-54
2024/01/02 02:28:00;;;;;;;0.40;0.10;;;;;;;3.74;100.00;98956.38;104611;1260;73315;-53
2024/01/02 02:30:27;;;;;;;1.50;0.10;;;;;;;3.72;100.00;98955.75;104854;1258;61448;-54
2024/01/02 02:32:55;;;;;;;0.30;0.10;;;;;;;3.70;100.00;98949.95;104773;1253;60839;-53
2024/01/02 02:35:22;;;;;;;0.10;0.10;;;;;;;3.68;100.00;98946.80;106307;1257;71744;-56
2024/01/02 02:37:50;;;;;;;0.10;0.10;;;;;;;3.69;100.00;98944.48;104960;1253;65967;-56
2024/01/02 02:40:17;;;;;;;0.10;0.10;;;;;;;3.69;100.00;98939.33;104505;1256;73376;-58
2024/01/02 02:42:44;;;;;;;0.10;0.00;;;;;;;3.71;100.00;98942.84;104803;1255;60446;-56
2024/01/02 02:45:12;;;;;;;0.10;0.00;;;;;;;3.70;100.00;98941.61;104644;1254;60326;-55
2024/01/02 02:47:45;;;;;;;0.00;0.00;;;;;;;3.68;100.00;98937.43;104995;1253;73798;-54
2024/01/02 02:50:13;;;;;;;2.00;0.00;;;;;;;3.62;100.00;98934.43;104554;1253;65775;-54
2024/01/02 02:52:40;;;;;;;0.20;0.00;;;;;;;3.58;100.00;98930.48;104444;1258;71785;-56
2024/01/02 02:55:10;;;;;;;0.10;0.00;;;;;;;3.56;100.00;98922.23;108786;1254;61462;-54
2024/01/02 02:57:37;;;;;;;0.10;0.10;;;;;;;3.54;100.00;98918.56;108970;1253;60088;-55
2024/01/02 03:00:06;;;;;;;0.30;0.10;;;;;;;3.54;100.00;98920.16;109063;1253;74293;-55
2024/01/02 03:02:33;;;;;;;0.10;0.10;;;;;;;3.55;100.00;98913.40;108953;1253;67318;-53
2024/01/02 03:05:00;;;;;;;1.40;0.10;;;;;;;3.55;100.00;98921.17;108854;1253;71473;-54
2024/01/02 03:07:28;;;;;;;1.10;0.10;;;;;;;3.55;100.00;98919.23;108097;1251;59355;-54
2024/01/02 03:09:55;;;;;;;0.20;0.10;;;;;;;3.54;100.00;98923.34;104508;1258;153218;-52
2024/01/02 03:14:42;;;;;;;0.10;0.00;;;;;;;3.50;100.00;98976.16;101804;1295;600616;-54
2024/01/02 03:17:09;;;;;;;0.20;0.10;;;;;;;3.48;100.00;98999.30;103761;1271;61114;-53
2024/01/02 03:19:37;;;;;;;0.40;0.20;;;;;;;3.48;100.00;98987.95;103668;1272;59376;-53
2024/01/02 03:22:04;;;;;;;0.20;0.20;;;;;;;3.50;100.00;98982.35;103732;1270;70803;-53
2024/01/02 03:24:32;;;;;;;0.20;0.20;;;;;;;3.52;100.00;98976.45;103950;1266;65684;-54
2024/01/02 03:26:59;;;;;;;0.10;0.10;;;;;;;3.51;100.00;98964.42;103851;1267;71508;-53
2024/01/02 03:29:27;;;;;;;0.10;0.10;;;;;;;3.49;100.00;98970.52;103685;1264;170641;-53
2024/01/02 03:31:55;;;;;;;0.10;0.00;;;;;;;3.48;100.00;98971.64;106760;1269;58841;-53
2024/01/02 03:34:23;;;;;;;0.60;0.10;;;;;;;3.46;100.00;98963.89;104509;1269;72736;-58
2024/01/02 03:36:50;;;;;;;0.10;0.10;;;;;;;3.45;100.00;98958.60;103970;1269;68009;-58
2024/01/02 03:39:18;;;;;;;0.10;0.00;;;;;;;3.45;100.00;98955.21;104402;1264;70592;-58
2024/01/02 03:41:45;;;;;;;0.20;0.00;;;;;;;3.47;100.00;98954.28;103926;1271;59784;-52
2024/01/02 03:44:12;;;;;;;0.10;0.00;;;;;;;3.46;100.00;98950.94;103958;1269;61391;-56
2024/01/02 03:46:39;;;;;;;0.20;0.10;;;;;;;3.45;100.00;98948.50;103948;1265;72778;-51
2024/01/02 03:49:07;;;;;;;0.50;0.10;;;;;;;3.43;100.00;98949.77;103762;1264;67945;-50
2024/01/02 03:51:34;;;;;;;0.20;0.10;;;;;;;3.39;100.00;98950.25;103906;1263;72710;-51
2024/01/02 03:54:02;;;;;;;0.50;0.10;;;;;;;3.36;100.00;98946.82;103902;1260;59685;-55
2024/01/02 03:56:29;;;;;;;0.20;0.00;;;;;;;3.34;100.00;98947.93;104007;1261;59767;-54
2024/01/02 03:58:57;;;;;;;0.30;0.00;;;;;;;3.34;100.00;98945.10;108303;1258;73439;-55
2024/01/02 04:01:24;;;;;;;0.20;0.00;;;;;;;3.34;100.00;98939.42;104538;1262;65636;-53
2024/01/02 04:03:51;;;;;;;0.10;0.10;;;;;;;3.34;100.00;98939.61;104389;1258;74534;-54
2024/01/02 04:06:19;;;;;;;0.10;0.10;;;;;;;3.32;100.00;98942.13;104366;1259;59728;-55
2024/01/02 04:08:47;;;;;;;0.10;0.00;;;;;;;3.31;100.00;98943.63;104865;1263;60124;-57
2024/01/02 04:11:16;;;;;;;0.10;0.00;;;;;;;3.28;100.00;98941.59;104177;1261;73788;-55
2024/01/02 04:13:43;;;;;;;0.00;0.00;;;;;;;3.27;100.00;98940.73;104274;1263;66660;-54
2024/01/02 04:16:11;;;;;;;0.00;0.00;;;;;;;3.27;100.00;98943.74;104419;1267;72644;-56
2024/01/02 04:18:38;;;;;;;0.10;0.00;;;;;;;3.29;100.00;98947.24;104521;1262;60334;-52
2024/01/02 04:21:05;;;;;;;0.20;0.10;;;;;;;3.28;100.00;98950.98;104160;1262;59825;-55
2024/01/02 04:23:33;;;;;;;0.20;0.00;;;;;;;3.27;100.00;98951.19;104528;1257;73137;-53
2024/01/02 04:26:00;;;;;;;0.20;0.10;;;;;;;3.24;100.00;98960.48;104494;1262;65154;-54
2024/01/02 04:28:27;;;;;;;0.00;0.00;;;;;;;3.20;100.00;98957.60;104505;1263;72364;-57
2024/01/02 04:30:54;;;;;;;0.10;0.00;;;;;;;3.16;100.00;98960.92;104215;1263;60934;-54
2024/01/02 04:33:22;;;;;;;0.00;0.00;;;;;;;3.12;100.00;98959.30;104498;1266;59718;-55
2024/01/02 04:35:50;;;;;;;0.00;0.00;;;;;;;3.09;100.00;98959.02;104446;1263;71253;-56
2024/01/02 04:38:17;;;;;;;0.00;0.00;;;;;;;3.08;100.00;98960.11;104496;1263;67398;-56
2024/01/02 04:40:44;;;;;;;0.20;0.10;;;;;;;3.04;100.00;98959.89;104163;1263;72760;-58
2024/01/02 04:43:12;;;;;;;0.20;0.10;;;;;;;3.00;100.00;98962.48;104339;1265;59871;-55
2024/01/02 04:45:39;;;;;;;0.30;0.10;;;;;;;2.95;100.00;98962.11;104359;1272;59909;-55
2024/01/02 04:48:06;;;;;;;0.10;0.00;;;;;;;2.91;100.00;98962.05;104422;1263;71882;-54
2024/01/02 04:50:34;;;;;;;0.00;0.00;;;;;;;2.88;100.00;98964.09;104420;1263;66079;-54
2024/01/02 04:53:02;;;;;;;0.10;0.00;;;;;;;2.86;100.00;98972.29;104334;1258;72434;-56
2024/01/02 04:55:29;;;;;;;0.00;0.00;;;;;;;2.86;100.00;98974.27;104180;1263;59740;-54
2024/01/02 04:57:56;;;;;;;0.20;0.10;;;;;;;2.86;100.00;98974.62;104700;1264;60075;-54
2024/01/02 05:00:24;;;;;;;0.20;0.10;;;;;;;2.84;100.00;98976.07;104196;1263;73001;-54
2024/01/02 05:02:51;;;;;;;0.10;0.00;;;;;;;2.83;100.00;98976.11;104391;1260;67289;-57
2024/01/02 05:05:18;;;;;;;0.20;0.10;;;;;;;2.79;100.00;98974.31;104378;1263;71420;-58
2024/01/02 05:07:46;;;;;;;0.20;0.10;;;;;;;2.75;100.00;98980.77;105116;1261;60022;-53
2024/01/02 05:10:13;;;;;;;0.10;0.00;;;;;;;2.73;100.00;98980.85;104415;1258;59966;-56
2024/01/02 05:12:41;;;;;;;2.80;0.10;;;;;;;2.70;100.00;98980.05;104518;1258;73508;-53
2024/01/02 05:15:08;;;;;;;0.10;0.00;;;;;;;2.69;100.00;98979.36;105757;1257;65623;-55
2024/01/02 05:17:35;;;;;;;0.10;0.00;;;;;;;2.68;100.00;98987.01;104367;1262;71811;-55
2024/01/02 05:20:03;;;;;;;0.10;0.10;;;;;;;2.66;100.00;98991.83;104375;1257;60024;-55
2024/01/02 05:22:31;;;;;;;0.10;0.00;;;;;;;2.65;100.00;98987.95;104366;1261;59979;-54
2024/01/02 05:24:58;;;;;;;0.20;0.00;;;;;;;2.63;100.00;98995.13;104251;1260;72049;-54
2024/01/02 05:27:25;;;;;;;0.10;0.10;;;;;;;2.60;100.00;99001.05;104497;1263;66800;-54
2024/01/02 05:29:53;;;;;;;0.10;0.00;;;;;;;2.58;100.00;99015.29;104552;1263;71811;-57
2024/01/02 05:32:21;;;;;;;0.10;0.00;;;;;;;2.55;100.00;99011.83;104381;1263;60815;-58
2024/01/02 05:34:52;;;;;;;0.70;0.10;;;;;;;2.55;100.00;99018.54;104517;1257;59635;-58
2024/01/02 05:37:19;;;;;;;0.20;0.10;;;;;;;2.56;100.00;99025.77;104608;1258;73686;-53
2024/01/02 05:39:47;;;;;;;0.10;0.10;;;;;;;2.55;100.00;99025.98;104634;1256;65779;-53
2024/01/02 05:42:14;;;;;;;0.10;0.10;;;;;;;2.53;100.00;99030.29;104473;1260;72746;-55
2024/01/02 05:44:41;;;;;;;0.10;0.10;;;;;;;2.50;100.00;99032.33;104582;1259;59648;-55
2024/01/02 05:47:09;;;;;;;0.10;0.10;;;;;;;2.46;100.00;99031.91;104922;1259;59675;-51
2024/01/02 05:49:36;;;;;;;0.10;0.10;;;;;;;2.42;100.00;99036.09;104498;1264;73028;-51
2024/01/02 05:52:04;;;;;;;0.10;0.10;;;;;;;2.40;100.00;99032.23;104635;1254;66153;-55
2024/01/02 05:54:32;;;;;;;0.20;0.10;;;;;;;2.41;100.00;99037.86;104761;1259;71641;-55
2024/01/02 05:56:59;;;;;;;0.10;0.10;;;;;;;2.41;100.00;99041.23;108798;1254;58801;-57
2024/01/02 05:59:26;;;;;;;0.30;0.10;;;;;;;2.43;100.00;99044.38;108914;1254;59981;-57
2024/01/02 06:01:53;;;;;;;0.00;0.00;;;;;;;2.42;100.00;99052.01;108915;1254;73116;-56
2024/01/02 06:04:21;;;;;;;0.10;0.10;;;;;;;2.41;100.00;99054.16;109020;1254;67258;-57
2024/01/02 06:06:48;;;;;;;0.20;0.10;;;;;;;2.39;100.00;99057.23;109011;1254;72714;-57
2024/01/02 06:09:15;;;;;;;0.00;0.00;;;;;;;2.38;100.00;99059.58;108946;1254;60871;-56
2024/01/02 06:11:43;;;;;;;0.00;0.00;;;;;;;2.36;100.00;99066.54;108962;1254;58656;-57
2024/01/02 06:14:11;;;;;;;0.10;0.10;;;;;;;2.34;100.00;99065.53;108944;1254;72506;-57
2024/01/02 06:16:39;;;;;;;0.10;0.00;;;;;;;2.33;100.00;99066.08;107216;1254;65682;-56
2024/01/02 06:19:07;;;;;;;0.10;0.00;;;;;;;2.34;100.00;99070.48;104716;1259;71921;-56
2024/01/02 06:21:34;;;;;;;0.00;0.00;;;;;;;2.33;100.00;99069.80;104713;1257;59594;-58
2024/01/02 06:24:02;;;;;;;0.00;0.00;;;;;;;2.31;100.00;99068.43;104550;1254;60092;-56
2024/01/02 06:26:29;;;;;;;0.00;0.00;;;;;;;2.28;100.00;99070.99;108817;1254;73486;-56
2024/01/02 06:28:57;;;;;;;0.00;0.00;;;;;;;2.25;100.00;99069.10;108954;1254;66285;-57
2024/01/02 06:31:24;;;;;;;0.10;0.00;;;;;;;2.24;100.00;99073.91;109070;1254;71448;-57
2024/01/02 06:33:51;;;;;;;0.00;0.00;;;;;;;2.23;100.00;99074.47;108862;1254;61153;-57
2024/01/02 06:36:19;;;;;;;0.00;0.00;;;;;;;2.25;100.00;99074.25;106587;1257;59656;-56
2024/01/02 06:38:46;;;;;;;0.00;0.00;;;;;;;2.25;100.00;99078.48;104372;1254;73959;-56
2024/01/02 06:41:14;;;;;;;0.10;0.10;;;;;;;2.26;100.00;99091.92;104520;1261;65663;-56
2024/01/02 06:43:41;;;;;;;0.00;0.00;;;;;;;2.26;100.00;99095.47;104629;1254;72622;-55
2024/01/02 06:46:11;;;;;;;0.00;0.00;;;;;;;2.24;100.00;99102.59;104625;1260;59701;-57
2024/01/02 06:48:40;;;;;;;0.10;0.10;;;;;;;2.22;100.00;99108.66;108807;1254;59808;-58
2024/01/02 06:51:07;;;;;;;0.30;0.10;;;;;;;2.18;100.00;99105.57;107200;1260;73127;-56
2024/01/02 06:53:34;;;;;;;0.10;0.00;;;;;;;2.15;100.00;99107.59;104823;1257;65682;-55
2024/01/02 06:56:03;;;;;;;0.00;0.00;;;;;;;2.13;100.00;99105.52;104660;1257;70934;-55
2024/01/02 06:58:30;;;;;;;0.10;0.10;;;;;;;2.12;100.00;99106.09;105792;1254;60538;-56
2024/01/02 07:00:57;;;;;;;0.20;0.00;;;;;;;2.13;100.00;99117.56;104686;1254;60273;-56
2024/01/02 07:03:25;;;;;;;0.30;0.00;;;;;;;2.14;100.00;99121.41;104429;1260;72236;-57
2024/01/02 07:05:52;;;;;;;0.20;0.10;;;;;;;2.15;100.00;99129.55;104630;1258;68672;-55
2024/01/02 07:08:20;;;;;;;0.10;0.00;;;;;;;2.13;100.00;99135.25;105290;1259;71545;-57
2024/01/02 07:10:47;;;;;;;0.20;0.10;;;;;;;2.10;100.00;99139.94;104650;1254;59749;-57
2024/01/02 07:13:15;;;;;;;0.20;0.00;;;;;;;2.07;100.00;99156.63;104490;1255;59651;-57
2024/01/02 07:15:42;;;;;;;0.10;0.00;;;;;;;2.04;100.00;99153.89;104607;1254;71940;-57
2024/01/02 07:18:11;;;;;;;0.10;0.10;;;;;;;2.03;100.00;99157.98;104604;1257;66044;-58
2024/01/02 07:20:39;;;;;;;0.10;0.00;;;;;;;2.03;100.00;99164.34;104598;1259;70589;-57
2024/01/02 07:23:07;;;;;;;0.00;0.00;;;;;;;2.03;100.00;99167.36;104837;1257;60530;-59
2024/01/02 07:25:34;;;;;;;0.10;0.00;;;;;;;2.02;100.00;99162.25;104590;1256;60562;-57
2024/01/02 07:28:02;;;;;;;0.10;0.00;;;;;;;2.00;100.00;99176.63;104463;1260;73903;-58
2024/01/02 07:30:29;;;;;;;0.10;0.10;;;;;;;1.98;100.00;99182.15;104589;1260;65530;-57
2024/01/02 07:32:56;;;;;;;0.80;0.10;;;;;;;1.95;100.00;99190.91;104449;1260;72697;-55
2024/01/02 07:35:24;;;;;;;0.20;0.10;;;;;;;1.92;100.00;99183.89;104695;1260;61382;-57
2024/01/02 07:37:51;;;;;;;0.30;0.10;;;;;;;1.90;100.00;99189.23;104688;1260;60603;-58
2024/01/02 07:40:18;;;;;;;0.30;0.10;;;;;;;1.90;100.00;99182.68;104807;1259;73036;-58
2024/01/02 07:42:46;;;;;;;0.30;0.10;;;;;;;1.93;100.00;99186.00;104816;1257;65657;-58
2024/01/02 07:45:13;;;;;;;0.30;0.10;;;;;;;1.96;100.00;99191.06;104670;1254;72756;-57
2024/01/02 07:47:41;;;;;;;0.20;0.10;;;;;;;1.99;100.00;99199.66;104836;1260;60051;-57
2024/01/02 07:50:08;;;;;;;0.10;0.10;;;;;;;1.99;100.00;99209.55;104755;1254;60467;-58
2024/01/02 07:52:37;;;;;;;0.10;0.10;;;;;;;1.97;100.00;99212.64;105291;1254;74416;-57
2024/01/02 07:55:05;;;;;;;0.10;0.10;;;;;;;1.90;100.00;99205.86;104768;1254;65922;-59
2024/01/02 07:57:32;;;;;;;0.20;0.10;;;;;;;1.83;100.00;99216.29;104697;1254;72701;-56
2024/01/02 08:00:00;;;;;;;0.20;0.10;;;;;;;1.80;100.00;99217.77;104987;1254;60904;-57
2024/01/02 08:02:27;;;;;;;0.20;0.10;;;;;;;1.78;100.00;99224.36;104826;1254;60732;-56
2024/01/02 08:04:55;;;;;;;0.10;0.00;;;;;;;1.78;100.00;99236.05;105024;1258;72611;-55
2024/01/02 08:07:22;;;;;;;2.40;0.10;;;;;;;1.77;100.00;99234.13;104983;1255;67068;-56
2024/01/02 08:09:49;;;;;;;0.10;0.10;;;;;;;1.74;100.00;99242.13;104726;1254;73572;-57
2024/01/02 08:12:17;;;;;;;0.20;0.10;;;;;;;1.74;100.00;99247.97;104941;1261;60561;-58
2024/01/02 08:14:44;;;;;;;0.10;0.00;;;;;;;1.75;100.00;99251.33;104728;1254;60656;-57
2024/01/02 08:17:12;;;;;;;0.10;0.10;;;;;;;1.72;100.00;99258.09;104891;1259;74007;-58
2024/01/02 08:19:39;;;;;;;0.20;0.10;;;;;;;1.68;100.00;99261.38;104842;1259;67695;-58
2024/01/02 08:22:07;;;;;;;0.20;0.10;;;;;;;1.64;100.00;99261.08;105338;1260;72768;-55
2024/01/02 08:24:34;;;;;;;0.10;0.10;;;;;;;1.60;100.00;99261.35;105090;1260;60466;-56
2024/01/02 08:27:02;;;;;;;0.10;0.10;;;;;;;1.54;100.00;99260.94;106346;1254;60454;-54
2024/01/02 08:29:30;;;;;;;0.20;0.10;;;;;;;1.47;100.00;99266.02;104616;1254;73946;-56
2024/01/02 08:31:57;;;;;;;0.20;0.10;;;;;;;1.41;100.00;99271.27;104810;1257;68757;-56
2024/01/02 08:34:25;;;;;;;0.20;0.10;;;;;;;1.38;100.00;99277.87;108811;1254;71434;-57
2024/01/02 08:36:52;;;;;;;0.10;0.10;;;;;;;1.35;100.00;99282.35;108812;1254;61521;-57
2024/01/02 08:39:20;;;;;;;0.10;0.10;;;;;;;1.32;100.00;99285.41;108780;1254;58817;-57
2024/01/02 08:41:47;;;;;;;0.10;0.10;;;;;;;1.26;100.00;99282.87;108876;1257;73772;-57
2024/01/02 08:44:14;;;;;;;0.20;0.10;;;;;;;1.20;100.00;99289.36;108762;1255;66933;-57
2024/01/02 08:46:42;;;;;;;0.20;0.20;;;;;;;1.13;100.00;99285.92;108634;1259;70750;-57
2024/01/02 08:49:11;;;;;;;0.20;0.10;;;;;;;1.03;100.00;99287.88;108845;1255;58510;-58
2024/01/02 08:51:41;;;;;;;0.20;0.10;;;;;;;0.94;100.00;99289.09;108880;1254;63113;-57
2024/01/02 08:54:08;;;;;;;0.30;0.30;;;;;;;0.89;100.00;99293.42;108933;1254;73981;-59
2024/01/02 08:56:35;;;;;;;0.20;0.20;;;;;;;0.86;100.00;99295.92;108801;1254;65770;-57
2024/01/02 08:59:03;;;;;;;0.20;0.10;;;;;;;0.83;100.00;99298.30;108739;1257;74106;-57
2024/01/02 09:01:30;;;;;;;0.20;0.10;;;;;;;0.80;100.00;99302.75;108813;1254;59175;-58
2024/01/02 09:03:57;;;;;;;0.20;0.20;;;;;;;0.75;100.00;99304.96;108665;1254;59932;-57
2024/01/02 09:06:32;;;;;;;0.20;0.20;;;;;;;0.69;100.00;99309.63;108770;1254;74456;-57
2024/01/02 09:09:00;;;;;;;0.10;0.10;;;;;;;0.62;100.00;99308.68;108938;1254;67095;-57
2024/01/02 09:11:27;;;;;;;0.20;0.20;;;;;;;0.56;100.00;99308.61;108650;1254;73475;-57
2024/01/02 09:13:55;;;;;;;0.20;0.10;;;;;;;0.51;100.00;99314.86;108525;1254;59943;-56
2024/01/02 09:16:22;;;;;;;0.10;0.10;;;;;;;0.46;100.00;99312.46;104643;1254;60463;-55
2024/01/02 09:18:49;;;;;;;0.20;0.10;;;;;;;0.43;100.00;99317.79;104548;1257;74070;-58
2024/01/02 09:21:17;;;;;;;0.20;0.20;;;;;;;0.42;100.00;99322.77;104675;1254;66708;-57
2024/01/02 09:23:44;;;;;;;0.10;0.10;;;;;;;0.42;100.00;99325.43;105441;1259;73094;-57
2024/01/02 09:26:13;;;;;;;0.40;0.20;;;;;;;0.43;100.00;99319.39;104892;1254;60514;-56
2024/01/02 09:28:42;;;;;;;0.50;0.30;;;;;;;0.44;100.00;99322.02;108162;1254;60013;-57
2024/01/02 09:31:09;;;;;;;0.20;0.20;;;;;;;0.42;100.00;99314.29;106456;1254;74430;-57
2024/01/02 09:33:38;;;;;;;0.40;0.20;;;;;;;0.36;100.00;99318.25;104613;1256;67284;-55
2024/01/02 09:36:08;;;;;;;0.40;0.20;;;;;;;0.27;100.00;99314.85;105867;1254;72968;-56
2024/01/02 09:38:38;;;;;;;0.20;0.20;;;;;;;0.19;100.00;99316.54;107400;1256;59639;-56
2024/01/02 09:41:18;;;;;;;0.50;0.30;;;;;;;0.14;100.00;99315.56;108975;1254;59102;-57
2024/01/02 09:44:06;;;;;;;0.90;0.40;;;;;;;0.10;100.00;99317.55;105327;1253;73775;-57
2024/01/02 09:46:53;;;;;;;0.70;0.40;;;;;;;0.09;100.00;99317.39;106497;1254;66066;-57
2024/01/02 09:49:31;;;;;;;0.50;0.40;;;;;;;0.12;100.00;99319.81;104540;1260;72688;-57
2024/01/02 09:52:20;;;;;;;0.60;0.40;;;;;;;0.14;100.00;99317.50;104779;1254;60390;-57
2024/01/02 09:55:17;;;;;;;0.80;0.40;;;;;;;0.15;100.00;99320.33;104745;1254;60444;-56
2024/01/02 09:57:57;;;;;;;0.80;0.50;;;;;;;0.13;100.00;99316.27;105399;1258;74299;-57
2024/01/02 10:00:31;;;;;;;0.90;0.60;;;;;;;0.08;100.00;99312.64;104580;1254;67532;-57
2024/01/02 10:03:07;;;;;;;0.70;0.50;;;;;;;0.01;100.00;99309.90;104747;1257;73153;-57
2024/01/02 10:05:53;;;;;;;1.40;0.50;;;;;;;-0.04;100.00;99308.21;104654;1254;60915;-57
2024/01/02 10:08:58;;;;;;;0.80;0.50;;;;;;;-0.09;100.00;99306.50;104773;1254;60540;-57
2024/01/02 10:11:36;;;;;;;1.10;0.60;;;;;;;-0.17;100.00;99310.31;104484;1258;72692;-57
2024/01/02 10:14:09;;;;;;;0.70;0.50;;;;;;;-0.23;100.00;99302.27;104680;1259;69106;-55
2024/01/02 10:16:40;;;;;;;0.90;0.50;;;;;;;-0.25;100.00;99301.76;104586;1254;72655;-57
2024/01/02 10:19:28;;;;;;;1.30;0.30;;;;;;;-0.22;100.00;99304.55;105204;1256;60537;-56
2024/01/02 10:22:24;;;;;;;0.60;0.50;;;;;;;-0.18;100.00;99306.45;104801;1256;60569;-57
2024/01/02 10:25:05;;;;;;;2.10;0.40;;;;;;;-0.16;100.00;99307.28;104474;1257;73867;-55
2024/01/02 10:27:41;;;;;;;1.20;0.40;;;;;;;-0.14;100.00;99308.15;105043;1257;67386;-56
2024/01/02 10:30:11;;;;;;;0.70;0.40;;;;;;;-0.16;100.00;99296.01;105552;1259;72735;-57
2024/01/02 10:33:03;;;;;;;0.70;0.60;;;;;;;-0.19;100.00;99293.41;106802;1256;59478;-55
2024/01/02 10:35:40;;;;;;;0.70;0.40;;;;;;;-0.23;100.00;99289.74;104647;1254;60524;-56
2024/01/02 10:38:22;;;;;;;0.60;0.40;;;;;;;-0.28;100.00;99284.00;104627;1254;72164;-57
2024/01/02 10:41:04;;;;;;;0.70;0.50;;;;;;;-0.31;100.00;99288.79;105765;1257;66077;-58
2024/01/02 10:43:45;;;;;;;0.60;0.30;;;;;;;-0.31;100.00;99287.73;105784;1257;70772;-56
2024/01/02 10:46:22;;;;;;;0.40;0.40;;;;;;;-0.29;100.00;99290.36;104485;1254;61334;-54
2024/01/02 10:49:22;;;;;;;0.50;0.40;;;;;;;-0.24;100.00;99290.83;108933;1254;61026;-58
2024/01/02 10:52:18;;;;;;;0.70;0.50;;;;;;;-0.18;100.00;99292.86;108828;1254;73934;-58
2024/01/02 10:54:57;;;;;;;0.60;0.50;;;;;;;-0.13;100.00;99296.33;107162;1259;68132;-58
2024/01/02 10:58:07;;;;;;;0.70;0.50;;;;;;;-0.13;100.00;99299.69;104659;1256;73405;-57
2024/01/02 11:00:40;;;;;;;0.80;0.40;;;;;;;-0.17;100.00;99294.80;104487;1257;60553;-57
2024/01/02 11:03:09;;;;;;;0.60;0.40;;;;;;;-0.21;100.00;99293.97;105154;1255;60443;-57
2024/01/02 11:05:59;;;;;;;0.70;0.50;;;;;;;-0.25;100.00;99295.41;104470;1254;72050;-56
2024/01/02 11:08:48;;;;;;;0.70;0.50;;;;;;;-0.28;100.00;99300.77;104662;1256;67544;-57
2024/01/02 11:11:16;;;;;;;0.70;0.50;;;;;;;-0.32;100.00;99304.67;106774;1254;71366;-57
2024/01/02 11:13:46;;;;;;;0.50;0.40;;;;;;;-0.36;100.00;99302.96;104630;1254;60464;-57
2024/01/02 11:16:17;;;;;;;0.90;0.40;;;;;;;-0.41;100.00;99311.13;104595;1256;59284;-56
2024/01/02 11:18:46;;;;;;;0.60;0.40;;;;;;;-0.47;100.00;99306.27;105418;1256;73945;-55
2024/01/02 11:21:21;;;;;;;0.70;0.40;;;;;;;-0.48;100.00;99305.38;104751;1256;67669;-58
2024/01/02 11:23:49;;;;;;;2.20;0.50;;;;;;;-0.48;100.00;99304.67;104656;1255;72757;-54
2024/01/02 11:26:24;;;;;;;0.60;0.40;;;;;;;-0.48;100.00;99303.09;104805;1254;60415;-55
2024/01/02 11:28:52;;;;;;;;;;;;;;;-0.46;100.00;99309.77;108878;1253;59023;-56
2024/01/02 11:31:20;;;;;;;0.80;0.50;;;;;;;-0.47;100.00;99312.08;108912;1253;71534;-53
2024/01/02 11:34:04;;;;;;;1.90;0.50;;;;;;;-0.53;100.00;99316.19;108844;1254;67277;-57
2024/01/02 11:36:47;;;;;;;0.80;0.50;;;;;;;-0.58;100.00;99316.59;108753;1254;75038;-57